Time;durP1;ratioP1;P1;durP2;ratioP2;P2;SDS_P1;SDS_P2;PMS_P1;PMS_P2;Temp;Humidity;BMP_temperature;BMP_pressure;BME280_temperature;BME280_humidity;BME280_pressure;Samples;Min_cycle;Max_cycle;Signal;HPM_P1;HPM_P2
2023/02/21 02:15:00;;;;;;;15.48;3.92;;;;;;;;;;5013702;28;20029;-41
2023/02/21 02:17:30;;;;;;;13.77;3.35;;;;;;;;;;5013748;28;20018;-41
2023/02/21 02:20:16;;;;;;;13.05;3.53;;;;;;;;;;5012688;28;20065;-41
2023/02/21 02:23:01;;;;;;;11.55;3.42;;;;;;;;;;5013636;28;20137;-42
2023/02/21 02:25:56;;;;;;;15.30;3.83;;;;;;;;;;5013495;28;20029;-41
2023/02/21 02:28:23;;;;;;;12.57;2.88;;;;;;;;;;5013573;28;20030;-41
2023/02/21 02:31:08;;;;;;;13.00;3.45;;;;;;;;;;5013526;28;20415;-41
2023/02/21 02:34:02;;;;;;;14.48;3.58;;;;;;;;;;5013201;28;20124;-41
2023/02/21 02:36:32;;;;;;;11.18;2.97;;;;;;;;;;5013282;28;20037;-40
2023/02/21 02:39:17;;;;;;;12.02;3.10;;;;;;;;;;5013326;28;20030;-41
2023/02/21 02:41:47;;;;;;;11.93;3.22;;;;;;;;;;4995426;28;20472;-41
2023/02/21 02:44:37;;;;;;;13.57;2.75;;;;;;;;;;5013123;28;20032;-41
2023/02/21 02:47:06;;;;;;;13.80;2.80;;;;;;;;;;5013131;28;20391;-41
2023/02/21 02:49:36;;;;;;;11.40;2.67;;;;;;;;;;5012894;28;20037;-41
2023/02/21 02:52:07;;;;;;;10.18;2.67;;;;;;;;;;5013110;28;20094;-41
2023/02/21 02:54:34;;;;;;;12.35;3.13;;;;;;;;;;5012996;28;20431;-41
2023/02/21 02:57:02;;;;;;;7.82;2.75;;;;;;;;;;5012849;28;20025;-41
2023/02/21 02:59:32;;;;;;;10.70;2.90;;;;;;;;;;5012844;28;20026;-41
2023/02/21 03:02:11;;;;;;;9.95;2.72;;;;;;;;;;5012767;28;20029;-41
2023/02/21 03:05:04;;;;;;;12.00;2.63;;;;;;;;;;5012814;28;20022;-41
2023/02/21 03:07:43;;;;;;;11.02;2.47;;;;;;;;;;5009579;28;20033;-41
2023/02/21 03:10:14;;;;;;;13.63;2.85;;;;;;;;;;5012712;28;20026;-41
2023/02/21 03:12:46;;;;;;;13.15;3.00;;;;;;;;;;5012732;28;20490;-41
2023/02/21 03:15:27;;;;;;;12.93;3.15;;;;;;;;;;5012640;28;20021;-41
2023/02/21 03:18:01;;;;;;;10.98;2.92;;;;;;;;;;5012589;28;20026;-41
2023/02/21 03:20:29;;;;;;;13.18;2.95;;;;;;;;;;5012446;28;20514;-41
2023/02/21 03:22:57;;;;;;;11.55;2.72;;;;;;;;;;5012544;28;20022;-41
2023/02/21 03:25:24;;;;;;;13.20;2.88;;;;;;;;;;5012441;28;20037;-41
2023/02/21 03:27:53;;;;;;;12.02;2.75;;;;;;;;;;5012413;28;20093;-41
2023/02/21 03:30:20;;;;;;;9.88;2.67;;;;;;;;;;5012204;28;20048;-41
2023/02/21 03:32:49;;;;;;;8.55;2.47;;;;;;;;;;5012002;28;20104;-41
2023/02/21 03:35:16;;;;;;;12.20;2.67;;;;;;;;;;5012250;28;20138;-41
2023/02/21 03:37:51;;;;;;;10.98;2.70;;;;;;;;;;5012225;28;20033;-41
2023/02/21 03:40:22;;;;;;;9.68;2.97;;;;;;;;;;5011984;28;20109;-42
2023/02/21 03:42:49;;;;;;;11.95;2.58;;;;;;;;;;5012029;28;20022;-41
2023/02/21 03:45:17;;;;;;;12.65;3.38;;;;;;;;;;5012068;28;20488;-41
2023/02/21 03:47:44;;;;;;;9.05;2.60;;;;;;;;;;5012095;28;20029;-41
2023/02/21 03:50:11;;;;;;;7.65;2.33;;;;;;;;;;5011945;28;20037;-41
2023/02/21 03:52:38;;;;;;;13.10;2.63;;;;;;;;;;5011971;28;20034;-41
2023/02/21 03:55:06;;;;;;;8.93;2.42;;;;;;;;;;5011973;28;20056;-41
2023/02/21 03:57:33;;;;;;;9.15;2.58;;;;;;;;;;5011872;28;20061;-41
2023/02/21 04:00:00;;;;;;;9.68;2.70;;;;;;;;;;5011733;28;20503;-41
2023/02/21 04:02:27;;;;;;;14.25;2.65;;;;;;;;;;5011831;28;20080;-41
2023/02/21 04:04:54;;;;;;;7.47;2.75;;;;;;;;;;5011680;28;20022;-41
2023/02/21 04:07:21;;;;;;;7.65;2.15;;;;;;;;;;5011684;28;20021;-41
2023/02/21 04:09:49;;;;;;;7.45;2.10;;;;;;;;;;5011503;28;20141;-41
2023/02/21 04:12:16;;;;;;;9.77;2.70;;;;;;;;;;5011652;28;20026;-41
2023/02/21 04:14:42;;;;;;;11.27;2.78;;;;;;;;;;5011598;28;20020;-41
2023/02/21 04:17:09;;;;;;;9.18;2.70;;;;;;;;;;5011439;28;20041;-41
2023/02/21 04:19:36;;;;;;;7.80;2.40;;;;;;;;;;5011400;28;20057;-41
2023/02/21 04:22:03;;;;;;;9.32;2.30;;;;;;;;;;4993905;28;20037;-41
2023/02/21 04:24:30;;;;;;;8.55;2.30;;;;;;;;;;5011524;28;20104;-41
2023/02/21 04:26:57;;;;;;;7.45;1.90;;;;;;;;;;5011480;28;20022;-41
2023/02/21 04:29:24;;;;;;;11.15;2.70;;;;;;;;;;5011281;28;20033;-41
2023/02/21 04:31:52;;;;;;;12.13;2.58;;;;;;;;;;5011257;28;20778;-41
2023/02/21 04:34:19;;;;;;;8.52;2.30;;;;;;;;;;5011278;28;20436;-41
2023/02/21 04:36:46;;;;;;;9.95;2.10;;;;;;;;;;5011352;28;20034;-41
2023/02/21 04:39:13;;;;;;;8.50;2.00;;;;;;;;;;5011213;28;20420;-42
2023/02/21 04:41:40;;;;;;;7.03;2.20;;;;;;;;;;5011224;28;20456;-41
2023/02/21 04:44:07;;;;;;;11.95;2.28;;;;;;;;;;5010804;28;20129;-41
2023/02/21 04:46:34;;;;;;;9.30;1.80;;;;;;;;;;5011272;28;20528;-41
2023/02/21 04:49:01;;;;;;;9.50;2.15;;;;;;;;;;5011153;28;20030;-41
2023/02/21 04:51:28;;;;;;;10.25;2.10;;;;;;;;;;5011008;28;20030;-41
2023/02/21 04:53:55;;;;;;;7.00;1.92;;;;;;;;;;5011191;28;20022;-41
2023/02/21 04:56:23;;;;;;;7.13;1.80;;;;;;;;;;5011218;28;20463;-41
2023/02/21 04:58:51;;;;;;;6.72;1.90;;;;;;;;;;5011183;28;20033;-41
2023/02/21 05:01:19;;;;;;;9.05;1.90;;;;;;;;;;5011033;28;20030;-41
2023/02/21 05:03:46;;;;;;;9.65;2.10;;;;;;;;;;5011084;28;20582;-41
2023/02/21 05:06:23;;;;;;;7.65;1.70;;;;;;;;;;5010998;28;20104;-41
2023/02/21 05:08:51;;;;;;;9.00;2.00;;;;;;;;;;5011035;28;20357;-41
2023/02/21 05:11:18;;;;;;;9.25;2.35;;;;;;;;;;5010824;28;20030;-41
2023/02/21 05:13:46;;;;;;;8.32;2.00;;;;;;;;;;5011002;28;20021;-41
2023/02/21 05:16:13;;;;;;;10.30;2.13;;;;;;;;;;5010962;28;20519;-41
2023/02/21 05:18:43;;;;;;;6.38;2.00;;;;;;;;;;5010917;28;20037;-41
2023/02/21 05:21:10;;;;;;;10.95;2.20;;;;;;;;;;5010833;28;20432;-41
2023/02/21 05:23:39;;;;;;;10.32;2.00;;;;;;;;;;5010885;28;20025;-41
2023/02/21 05:26:13;;;;;;;7.63;1.65;;;;;;;;;;5010930;28;20030;-41
2023/02/21 05:28:40;;;;;;;8.55;2.15;;;;;;;;;;5010829;28;20030;-41
2023/02/21 05:31:08;;;;;;;8.45;2.10;;;;;;;;;;5010677;28;20030;-41
2023/02/21 05:33:35;;;;;;;11.48;2.03;;;;;;;;;;5010019;28;20407;-41
2023/02/21 05:36:02;;;;;;;8.32;1.98;;;;;;;;;;5010864;28;20049;-41
2023/02/21 05:38:29;;;;;;;7.95;2.13;;;;;;;;;;5010705;28;20488;-41
2023/02/21 05:40:56;;;;;;;6.95;1.88;;;;;;;;;;5010681;28;20093;-41
2023/02/21 05:43:23;;;;;;;10.88;2.17;;;;;;;;;;5010747;28;20391;-41
2023/02/21 05:45:50;;;;;;;6.97;1.88;;;;;;;;;;5010664;28;20029;-41
2023/02/21 05:48:17;;;;;;;6.85;1.77;;;;;;;;;;5010735;28;20026;-41
2023/02/21 05:50:44;;;;;;;5.90;1.67;;;;;;;;;;5010520;28;20056;-41
2023/02/21 05:53:11;;;;;;;10.15;2.60;;;;;;;;;;5010677;28;20026;-41
2023/02/21 05:55:38;;;;;;;7.82;2.00;;;;;;;;;;5012200;28;20108;-41
2023/02/21 05:58:05;;;;;;;9.23;2.15;;;;;;;;;;5014098;28;20026;-41
2023/02/21 06:00:32;;;;;;;5.68;1.98;;;;;;;;;;5014201;28;20152;-39
2023/02/21 06:02:59;;;;;;;7.60;2.15;;;;;;;;;;5012615;28;20044;-41
2023/02/21 06:05:26;;;;;;;7.28;2.28;;;;;;;;;;5013914;28;20021;-41
2023/02/21 06:07:53;;;;;;;10.32;2.10;;;;;;;;;;5013881;28;20022;-41
2023/02/21 06:10:20;;;;;;;9.35;1.95;;;;;;;;;;5013664;28;20034;-41
2023/02/21 06:12:47;;;;;;;7.38;2.00;;;;;;;;;;5013858;28;20022;-41
2023/02/21 06:15:14;;;;;;;6.88;1.70;;;;;;;;;;5013739;28;20050;-41
2023/02/21 06:17:41;;;;;;;7.72;1.80;;;;;;;;;;5013756;28;20022;-41
2023/02/21 06:20:13;;;;;;;8.68;1.80;;;;;;;;;;5013598;28;20024;-41
2023/02/21 06:22:40;;;;;;;6.50;1.50;;;;;;;;;;5013597;28;20393;-41
2023/02/21 06:25:07;;;;;;;6.32;1.75;;;;;;;;;;5013587;28;20499;-41
2023/02/21 06:27:35;;;;;;;7.78;1.70;;;;;;;;;;5013412;28;20033;-41
2023/02/21 06:30:02;;;;;;;7.97;1.70;;;;;;;;;;5013373;28;20058;-41
2023/02/21 06:32:29;;;;;;;7.25;1.60;;;;;;;;;;5013209;28;20460;-41
2023/02/21 06:34:56;;;;;;;7.05;1.83;;;;;;;;;;5013540;28;20062;-41
2023/02/21 06:37:23;;;;;;;6.18;1.40;;;;;;;;;;5013368;28;20089;-41
2023/02/21 06:39:50;;;;;;;5.80;1.40;;;;;;;;;;5013217;28;20034;-41
2023/02/21 06:42:17;;;;;;;7.43;1.67;;;;;;;;;;5013069;28;20036;-41
2023/02/21 06:44:47;;;;;;;4.40;1.48;;;;;;;;;;5013246;28;20057;-41
2023/02/21 06:47:14;;;;;;;9.38;1.80;;;;;;;;;;5013153;28;20018;-41
2023/02/21 06:49:42;;;;;;;6.97;1.60;;;;;;;;;;5012957;28;20057;-41
2023/02/21 06:52:09;;;;;;;6.10;1.58;;;;;;;;;;4995428;28;20054;-41
2023/02/21 06:54:36;;;;;;;6.70;1.77;;;;;;;;;;5012997;28;20040;-41
2023/02/21 06:57:04;;;;;;;7.55;1.60;;;;;;;;;;5013033;28;20026;-41
2023/02/21 06:59:31;;;;;;;9.95;1.60;;;;;;;;;;5012751;28;20045;-41
2023/02/21 07:01:58;;;;;;;6.18;1.98;;;;;;;;;;5160552;22;20005;-39
2023/02/21 07:04:25;;;;;;;6.47;1.70;;;;;;;;;;5057092;28;20053;-43
2023/02/21 07:06:52;;;;;;;6.32;1.92;;;;;;;;;;5071989;28;20144;-43
2023/02/21 07:09:19;;;;;;;7.05;1.77;;;;;;;;;;5072493;28;20013;-43
2023/02/21 07:11:46;;;;;;;5.22;1.52;;;;;;;;;;5054529;28;20432;-43
2023/02/21 07:14:14;;;;;;;8.10;1.75;;;;;;;;;;5072269;28;20025;-43
2023/02/21 07:16:41;;;;;;;5.63;1.52;;;;;;;;;;5072239;28;20090;-43
2023/02/21 07:19:08;;;;;;;5.25;1.65;;;;;;;;;;5054181;28;20033;-43
2023/02/21 07:21:35;;;;;;;7.35;1.83;;;;;;;;;;5054282;28;20034;-43
2023/02/21 07:24:02;;;;;;;5.85;1.40;;;;;;;;;;5072108;28;20031;-43
2023/02/21 07:26:29;;;;;;;6.38;2.03;;;;;;;;;;5072110;28;20370;-43
2023/02/21 07:28:56;;;;;;;7.03;1.80;;;;;;;;;;5072256;28;20443;-43
2023/02/21 07:31:23;;;;;;;4.13;1.52;;;;;;;;;;5071973;28;20588;-43
2023/02/21 07:33:50;;;;;;;6.28;1.73;;;;;;;;;;5071936;28;20103;-43
2023/02/21 07:36:17;;;;;;;6.15;1.60;;;;;;;;;;5071970;28;20096;-43
2023/02/21 07:38:44;;;;;;;4.38;1.50;;;;;;;;;;5071855;28;20082;-43
2023/02/21 07:41:11;;;;;;;4.00;1.60;;;;;;;;;;5071850;28;20092;-43
2023/02/21 07:43:38;;;;;;;7.10;1.55;;;;;;;;;;5071765;28;20032;-43
2023/02/21 07:46:09;;;;;;;9.60;1.95;;;;;;;;;;5071754;28;20429;-43
2023/02/21 07:48:36;;;;;;;6.63;1.70;;;;;;;;;;5071737;28;20111;-43
2023/02/21 07:51:03;;;;;;;5.57;1.50;;;;;;;;;;5071550;28;20033;-43
2023/02/21 07:53:30;;;;;;;4.75;1.33;;;;;;;;;;5071444;28;20021;-43
2023/02/21 07:55:57;;;;;;;6.78;1.45;;;;;;;;;;5071591;28;20025;-43
2023/02/21 07:58:24;;;;;;;8.10;1.77;;;;;;;;;;5071563;28;20024;-43
2023/02/21 08:00:54;;;;;;;7.30;1.63;;;;;;;;;;5071332;28;20032;-43
2023/02/21 08:03:22;;;;;;;6.03;1.35;;;;;;;;;;5071006;28;20053;-43
2023/02/21 08:05:49;;;;;;;6.80;1.67;;;;;;;;;;5071444;28;20023;-43
2023/02/21 08:08:16;;;;;;;5.30;1.70;;;;;;;;;;5071416;28;20028;-43
2023/02/21 08:10:43;;;;;;;7.15;1.67;;;;;;;;;;5071229;28;20033;-43
2023/02/21 08:13:10;;;;;;;7.22;1.63;;;;;;;;;;5071218;28;20081;-43
2023/02/21 08:15:37;;;;;;;4.13;1.48;;;;;;;;;;5071205;28;20021;-43
2023/02/21 08:18:04;;;;;;;4.10;1.20;;;;;;;;;;5070478;28;20016;-43
2023/02/21 08:20:30;;;;;;;5.35;1.45;;;;;;;;;;5071239;28;20446;-43
2023/02/21 08:22:57;;;;;;;7.88;1.50;;;;;;;;;;5071152;28;20020;-43
2023/02/21 08:25:24;;;;;;;5.63;1.42;;;;;;;;;;5071164;28;20525;-43
2023/02/21 08:27:54;;;;;;;5.63;1.30;;;;;;;;;;5071028;28;20433;-43
2023/02/21 08:30:21;;;;;;;4.57;1.80;;;;;;;;;;5071124;28;20051;-43
2023/02/21 08:32:50;;;;;;;5.85;1.83;;;;;;;;;;5070853;28;20037;-43
2023/02/21 08:35:18;;;;;;;3.85;1.30;;;;;;;;;;5070956;28;20063;-43
2023/02/21 08:37:48;;;;;;;5.80;1.17;;;;;;;;;;5070076;28;20442;-44
2023/02/21 08:40:18;;;;;;;5.70;1.40;;;;;;;;;;5071016;28;20031;-44
2023/02/21 08:42:48;;;;;;;4.85;1.20;;;;;;;;;;5070866;28;20017;-43
2023/02/21 08:45:19;;;;;;;7.47;1.75;;;;;;;;;;5070982;28;20025;-43
2023/02/21 08:47:46;;;;;;;5.80;1.80;;;;;;;;;;5070952;28;20025;-43
2023/02/21 08:50:13;;;;;;;5.20;1.33;;;;;;;;;;5070778;28;20032;-43
2023/02/21 08:52:40;;;;;;;5.80;1.67;;;;;;;;;;5070729;28;20024;-43
2023/02/21 08:55:07;;;;;;;7.18;1.60;;;;;;;;;;5070945;28;20058;-43
2023/02/21 08:57:35;;;;;;;4.97;1.35;;;;;;;;;;5070914;28;20024;-43
2023/02/21 09:00:04;;;;;;;3.10;1.25;;;;;;;;;;5052715;28;20052;-43
2023/02/21 09:02:31;;;;;;;5.15;1.42;;;;;;;;;;5070298;28;20105;-43
2023/02/21 09:04:58;;;;;;;5.20;1.60;;;;;;;;;;5070827;28;20033;-43
2023/02/21 09:07:27;;;;;;;4.40;1.30;;;;;;;;;;5070815;28;20548;-43
2023/02/21 09:09:54;;;;;;;4.32;1.50;;;;;;;;;;5070472;28;20068;-43
2023/02/21 09:12:21;;;;;;;5.13;1.70;;;;;;;;;;5070668;28;20129;-43
2023/02/21 09:14:48;;;;;;;4.13;1.20;;;;;;;;;;5070692;28;20021;-43
2023/02/21 09:17:15;;;;;;;4.95;1.67;;;;;;;;;;5070725;28;20048;-43
2023/02/21 09:19:43;;;;;;;2.53;1.20;;;;;;;;;;5070643;28;20032;-42
2023/02/21 09:22:10;;;;;;;4.35;1.85;;;;;;;;;;5070343;28;20028;-43
2023/02/21 09:24:38;;;;;;;5.38;1.52;;;;;;;;;;5070588;28;20021;-43
2023/02/21 09:27:05;;;;;;;4.53;1.27;;;;;;;;;;5070610;28;20090;-43
2023/02/21 09:29:33;;;;;;;4.43;1.40;;;;;;;;;;5053977;28;20390;-43
2023/02/21 09:32:01;;;;;;;5.80;1.40;;;;;;;;;;5074371;28;20535;-43
2023/02/21 09:34:28;;;;;;;3.63;1.20;;;;;;;;;;5074248;28;20037;-42
2023/02/21 09:36:55;;;;;;;6.10;1.52;;;;;;;;;;5074244;28;20032;-43
2023/02/21 09:39:23;;;;;;;2.90;1.30;;;;;;;;;;5074266;28;20075;-43
2023/02/21 09:41:52;;;;;;;7.40;1.50;;;;;;;;;;5074011;28;20013;-43
2023/02/21 09:44:21;;;;;;;4.10;1.60;;;;;;;;;;5073982;28;20066;-43
2023/02/21 09:47:08;;;;;;;4.03;1.50;;;;;;;;;;5056096;28;20071;-43
2023/02/21 09:49:37;;;;;;;4.55;1.65;;;;;;;;;;5073921;28;20036;-43
2023/02/21 09:52:04;;;;;;;5.13;1.35;;;;;;;;;;5073776;28;20021;-43
2023/02/21 09:54:33;;;;;;;2.42;1.10;;;;;;;;;;5073946;28;20025;-43
2023/02/21 09:57:04;;;;;;;4.68;1.30;;;;;;;;;;5073850;28;20018;-43
2023/02/21 09:59:31;;;;;;;4.03;1.20;;;;;;;;;;5073790;28;20051;-43
2023/02/21 10:02:01;;;;;;;3.00;1.08;;;;;;;;;;5073687;28;20444;-43
2023/02/21 10:04:37;;;;;;;4.63;1.42;;;;;;;;;;5073771;28;20044;-43
2023/02/21 10:07:04;;;;;;;5.28;1.40;;;;;;;;;;5073689;28;20028;-43
2023/02/21 10:09:40;;;;;;;4.03;1.48;;;;;;;;;;5073662;28;20086;-43
2023/02/21 10:12:13;;;;;;;3.28;1.27;;;;;;;;;;5073411;28;20086;-43
2023/02/21 10:14:54;;;;;;;4.03;1.20;;;;;;;;;;5073659;28;20048;-43
2023/02/21 10:17:23;;;;;;;5.25;1.30;;;;;;;;;;5073532;28;20028;-43
2023/02/21 10:19:54;;;;;;;4.05;1.20;;;;;;;;;;5073586;28;20482;-43
2023/02/21 10:22:23;;;;;;;7.13;1.42;;;;;;;;;;5073424;28;20420;-43
2023/02/21 10:24:52;;;;;;;4.82;1.02;;;;;;;;;;5073467;28;20099;-43
2023/02/21 10:27:19;;;;;;;8.73;1.33;;;;;;;;;;5073363;28;20031;-43
2023/02/21 10:29:51;;;;;;;4.90;1.50;;;;;;;;;;5073310;28;20033;-43
2023/02/21 10:32:18;;;;;;;6.93;1.63;;;;;;;;;;5073072;28;20036;-43
2023/02/21 10:34:46;;;;;;;4.75;1.30;;;;;;;;;;5073258;28;20024;-43
2023/02/21 10:37:33;;;;;;;4.55;1.33;;;;;;;;;;5073184;28;20025;-43
2023/02/21 10:40:06;;;;;;;5.07;1.25;;;;;;;;;;5056136;28;20048;-43
2023/02/21 10:42:46;;;;;;;5.75;1.17;;;;;;;;;;5072311;28;20028;-43
2023/02/21 10:45:16;;;;;;;3.38;1.10;;;;;;;;;;5072886;28;20032;-43
2023/02/21 10:47:49;;;;;;;5.47;1.48;;;;;;;;;;5072965;28;20028;-43
2023/02/21 10:50:17;;;;;;;6.18;1.27;;;;;;;;;;5072887;28;20074;-43
2023/02/21 10:52:51;;;;;;;5.20;1.20;;;;;;;;;;5072814;28;20097;-43
2023/02/21 10:55:19;;;;;;;3.97;1.45;;;;;;;;;;5072783;28;20113;-43
2023/02/21 10:57:49;;;;;;;4.60;1.30;;;;;;;;;;5072699;28;20391;-43
2023/02/21 11:00:36;;;;;;;4.68;1.20;;;;;;;;;;5072718;28;20477;-43
2023/02/21 11:03:12;;;;;;;8.07;1.35;;;;;;;;;;5072253;28;20057;-43
2023/02/21 11:05:39;;;;;;;3.70;1.40;;;;;;;;;;5054959;28;20025;-43
2023/02/21 11:08:08;;;;;;;4.20;1.23;;;;;;;;;;5072420;28;20381;-43
2023/02/21 11:10:41;;;;;;;3.70;1.15;;;;;;;;;;5072411;28;20067;-43
2023/02/21 11:13:10;;;;;;;4.20;1.58;;;;;;;;;;5072250;28;20041;-43
2023/02/21 11:15:37;;;;;;;5.80;1.23;;;;;;;;;;5072414;28;20111;-43
2023/02/21 11:18:06;;;;;;;5.80;1.55;;;;;;;;;;5072334;28;20063;-43
2023/02/21 11:20:33;;;;;;;3.92;1.50;;;;;;;;;;5072400;28;20028;-43
2023/02/21 11:23:00;;;;;;;4.57;1.40;;;;;;;;;;5072024;28;20032;-43
2023/02/21 11:25:28;;;;;;;7.10;1.30;;;;;;;;;;5072050;28;20474;-43
2023/02/21 11:28:02;;;;;;;5.82;1.40;;;;;;;;;;5072185;28;20021;-43
2023/02/21 11:30:31;;;;;;;7.68;1.27;;;;;;;;;;5037538;28;20401;-43
2023/02/21 11:33:00;;;;;;;4.80;1.50;;;;;;;;;;5071895;28;20039;-43
2023/02/21 11:35:35;;;;;;;10.15;1.40;;;;;;;;;;5071984;28;20032;-43
2023/02/21 11:38:03;;;;;;;6.47;1.25;;;;;;;;;;5071755;28;20051;-43
2023/02/21 11:40:35;;;;;;;8.43;1.63;;;;;;;;;;5071921;28;20032;-43
2023/02/21 11:43:13;;;;;;;7.30;1.58;;;;;;;;;;5071560;28;20035;-43
2023/02/21 11:45:43;;;;;;;2.83;1.20;;;;;;;;;;5071747;28;20470;-43
2023/02/21 11:48:14;;;;;;;6.03;1.30;;;;;;;;;;5071251;28;20067;-43
2023/02/21 11:50:47;;;;;;;4.80;1.30;;;;;;;;;;5071568;28;20112;-43
2023/02/21 11:53:21;;;;;;;9.77;1.67;;;;;;;;;;5071620;28;20259;-43
2023/02/21 11:55:58;;;;;;;10.07;1.60;;;;;;;;;;5071429;28;20486;-43
2023/02/21 11:58:27;;;;;;;5.13;1.35;;;;;;;;;;5071434;28;20035;-43
2023/02/21 12:01:05;;;;;;;7.13;1.25;;;;;;;;;;5071543;28;20028;-43
2023/02/21 12:03:51;;;;;;;6.88;1.52;;;;;;;;;;5071175;28;20075;-43
2023/02/21 12:06:25;;;;;;;5.05;1.50;;;;;;;;;;5071505;28;20073;-43
2023/02/21 12:09:02;;;;;;;5.60;1.50;;;;;;;;;;5071229;28;20032;-43
2023/02/21 12:11:48;;;;;;;6.53;1.70;;;;;;;;;;5071248;28;20028;-43
2023/02/21 12:14:14;;;;;;;7.85;1.90;;;;;;;;;;5071138;28;20074;-43
2023/02/21 12:16:47;;;;;;;7.18;1.80;;;;;;;;;;5071315;28;20028;-43
2023/02/21 12:19:23;;;;;;;5.90;1.70;;;;;;;;;;5071259;28;20493;-43
2023/02/21 12:22:09;;;;;;;7.18;1.70;;;;;;;;;;5070945;28;20079;-43
2023/02/21 12:24:35;;;;;;;;;;;;;;;;;;5071442;28;20032;-43
2023/02/21 12:27:02;;;;;;;6.70;1.88;;;;;;;;;;5071102;28;19991;-43
2023/02/21 12:29:29;;;;;;;5.10;1.67;;;;;;;;;;5070924;28;20044;-43
2023/02/21 12:32:05;;;;;;;11.40;1.67;;;;;;;;;;5071035;28;20059;-43
2023/02/21 12:34:38;;;;;;;6.82;1.73;;;;;;;;;;5071016;28;20025;-43
2023/02/21 12:37:11;;;;;;;5.97;1.85;;;;;;;;;;5071137;28;20500;-43
2023/02/21 12:39:58;;;;;;;8.10;1.50;;;;;;;;;;5071108;28;20032;-43
2023/02/21 12:42:43;;;;;;;7.28;2.10;;;;;;;;;;5070895;28;20040;-43
2023/02/21 12:45:19;;;;;;;8.23;1.73;;;;;;;;;;5070955;28;20024;-43
2023/02/21 12:47:53;;;;;;;7.50;2.17;;;;;;;;;;5071001;28;20020;-43
2023/02/21 12:50:32;;;;;;;7.80;1.77;;;;;;;;;;5070843;28;20028;-43
2023/02/21 12:53:14;;;;;;;12.18;1.90;;;;;;;;;;5070777;28;20103;-43
2023/02/21 12:55:58;;;;;;;12.60;1.92;;;;;;;;;;5070867;28;20024;-43
2023/02/21 12:58:31;;;;;;;7.40;1.73;;;;;;;;;;5071103;28;20096;-43
2023/02/21 13:01:10;;;;;;;8.82;1.83;;;;;;;;;;5052709;28;20059;-43
2023/02/21 13:03:45;;;;;;;14.65;2.20;;;;;;;;;;5070502;28;20059;-43
2023/02/21 13:06:30;;;;;;;8.10;1.92;;;;;;;;;;5074891;28;20078;-43
2023/02/21 13:09:06;;;;;;;16.58;2.30;;;;;;;;;;5074764;28;20059;-43
2023/02/21 13:12:00;;;;;;;10.48;2.25;;;;;;;;;;5074565;28;20028;-43
2023/02/21 13:14:33;;;;;;;20.58;2.58;;;;;;;;;;5037062;28;20064;-43
2023/02/21 13:17:00;;;;;;;11.63;2.05;;;;;;;;;;5074563;28;20114;-43
2023/02/21 13:19:34;;;;;;;9.48;1.90;;;;;;;;;;5074579;28;20031;-43
2023/02/21 13:22:26;;;;;;;14.45;2.53;;;;;;;;;;5074559;28;20055;-43
2023/02/21 13:25:04;;;;;;;10.90;2.40;;;;;;;;;;5034582;28;20403;-43
2023/02/21 13:27:49;;;;;;;15.95;2.42;;;;;;;;;;5074423;28;20486;-43
2023/02/21 13:30:38;;;;;;;9.15;1.85;;;;;;;;;;5056165;28;20800;-43
2023/02/21 13:33:05;;;;;;;10.80;2.50;;;;;;;;;;5074180;28;20036;-43
2023/02/21 13:35:35;;;;;;;15.13;2.17;;;;;;;;;;5074236;28;20028;-43
2023/02/21 13:38:05;;;;;;;16.38;2.70;;;;;;;;;;5074192;28;20040;-43
2023/02/21 13:40:42;;;;;;;11.65;2.30;;;;;;;;;;5074234;28;20587;-43
2023/02/21 13:43:16;;;;;;;15.05;2.33;;;;;;;;;;5074033;28;20032;-43
2023/02/21 13:45:44;;;;;;;13.52;2.55;;;;;;;;;;5074005;28;20028;-43
2023/02/21 13:48:18;;;;;;;16.98;2.72;;;;;;;;;;5073751;28;20040;-43
2023/02/21 13:50:47;;;;;;;10.48;2.00;;;;;;;;;;5074074;28;20040;-43
2023/02/21 13:53:21;;;;;;;17.90;2.80;;;;;;;;;;5073843;28;20490;-43
2023/02/21 13:56:00;;;;;;;12.45;2.38;;;;;;;;;;5073927;28;20111;-43
2023/02/21 13:58:32;;;;;;;14.70;2.22;;;;;;;;;;5073822;28;20028;-43
2023/02/21 14:00:59;;;;;;;;;;;;;;;;;;5074266;28;20036;-43
2023/02/21 14:03:27;;;;;;;13.93;2.38;;;;;;;;;;5073602;28;19916;-43
2023/02/21 14:05:54;;;;;;;13.05;2.47;;;;;;;;;;5073604;28;20052;-43
2023/02/21 14:08:29;;;;;;;16.20;2.95;;;;;;;;;;5073427;28;20494;-43
2023/02/21 14:11:05;;;;;;;12.98;2.40;;;;;;;;;;5073678;28;20488;-43
2023/02/21 14:13:41;;;;;;;18.85;3.30;;;;;;;;;;5073454;28;20028;-43
2023/02/21 14:16:08;;;;;;;15.65;2.85;;;;;;;;;;5072296;28;20056;-43
2023/02/21 14:18:38;;;;;;;18.50;2.75;;;;;;;;;;5073453;28;20029;-43
2023/02/21 14:21:17;;;;;;;11.38;2.50;;;;;;;;;;5073449;28;20536;-43
2023/02/21 14:23:50;;;;;;;13.73;2.63;;;;;;;;;;5073448;28;20042;-43
2023/02/21 14:26:35;;;;;;;15.32;2.85;;;;;;;;;;5073427;28;20116;-43
2023/02/21 14:29:09;;;;;;;13.95;2.83;;;;;;;;;;5073309;28;20032;-43
2023/02/21 14:31:50;;;;;;;19.58;3.53;;;;;;;;;;5073093;28;20553;-43
2023/02/21 14:34:26;;;;;;;17.30;3.15;;;;;;;;;;5073198;28;20059;-43
2023/02/21 14:36:54;;;;;;;18.10;3.13;;;;;;;;;;5073166;28;20028;-43
2023/02/21 14:39:22;;;;;;;17.88;2.90;;;;;;;;;;5073079;28;20032;-43
2023/02/21 14:42:01;;;;;;;23.10;3.28;;;;;;;;;;5073011;28;20085;-43
2023/02/21 14:44:35;;;;;;;15.93;3.30;;;;;;;;;;5055174;28;20040;-43
2023/02/21 14:47:05;;;;;;;20.73;3.20;;;;;;;;;;5072830;28;20029;-43
2023/02/21 14:49:35;;;;;;;15.68;3.67;;;;;;;;;;5072961;28;20086;-43
2023/02/21 14:52:01;;;;;;;16.73;2.88;;;;;;;;;;5072805;28;20044;-43
2023/02/21 14:54:28;;;;;;;16.40;3.28;;;;;;;;;;5054737;28;20394;-43
2023/02/21 14:56:55;;;;;;;16.38;3.40;;;;;;;;;;5072779;28;20048;-43
2023/02/21 14:59:25;;;;;;;14.07;3.08;;;;;;;;;;5072529;28;20555;-43
2023/02/21 15:02:04;;;;;;;18.70;3.65;;;;;;;;;;5072615;28;20081;-43
2023/02/21 15:04:35;;;;;;;21.92;3.80;;;;;;;;;;5072550;28;20032;-43
2023/02/21 15:07:17;;;;;;;17.33;3.53;;;;;;;;;;5072481;28;20037;-43
2023/02/21 15:09:43;;;;;;;;;;;;;;;;;;5073046;28;20480;-43
2023/02/21 15:12:14;;;;;;;19.35;3.38;;;;;;;;;;5072379;28;19939;-43
2023/02/21 15:14:47;;;;;;;23.65;3.60;;;;;;;;;;5072441;28;20129;-43
2023/02/21 15:17:17;;;;;;;16.35;3.97;;;;;;;;;;5072397;28;20032;-44
2023/02/21 15:19:44;;;;;;;17.73;3.97;;;;;;;;;;5072259;28;20056;-43
2023/02/21 15:22:25;;;;;;;20.52;3.78;;;;;;;;;;5072070;28;20038;-43
2023/02/21 15:25:10;;;;;;;19.70;4.03;;;;;;;;;;5072216;28;20024;-43
2023/02/21 15:27:49;;;;;;;20.85;3.72;;;;;;;;;;5071883;28;20135;-43
2023/02/21 15:30:18;;;;;;;23.33;4.07;;;;;;;;;;5072022;28;20063;-43
2023/02/21 15:32:52;;;;;;;20.00;3.67;;;;;;;;;;5071981;28;20024;-43
2023/02/21 15:35:22;;;;;;;19.13;3.78;;;;;;;;;;5072213;28;20033;-43
2023/02/21 15:37:49;;;;;;;20.98;3.85;;;;;;;;;;5071899;28;20542;-43
2023/02/21 15:40:18;;;;;;;25.60;3.83;;;;;;;;;;5071864;28;20043;-43
2023/02/21 15:42:46;;;;;;;20.08;4.30;;;;;;;;;;5071771;28;20051;-43
2023/02/21 15:45:18;;;;;;;20.48;3.60;;;;;;;;;;5071792;28;20035;-43
2023/02/21 15:47:45;;;;;;;22.35;4.75;;;;;;;;;;5071878;28;20066;-43
2023/02/21 15:50:18;;;;;;;23.05;4.55;;;;;;;;;;5071530;28;20894;-43
2023/02/21 15:52:52;;;;;;;22.58;4.00;;;;;;;;;;5071569;28;20178;-43
2023/02/21 15:55:19;;;;;;;18.35;4.20;;;;;;;;;;5071619;28;20024;-43
2023/02/21 15:57:58;;;;;;;16.83;3.67;;;;;;;;;;5071603;28;20027;-43
2023/02/21 16:00:27;;;;;;;20.77;4.78;;;;;;;;;;5071446;28;20413;-43
2023/02/21 16:03:14;;;;;;;23.48;4.80;;;;;;;;;;5071226;28;20509;-43
2023/02/21 16:05:41;;;;;;;19.50;4.78;;;;;;;;;;5070595;28;20482;-43
2023/02/21 16:08:15;;;;;;;23.33;4.90;;;;;;;;;;5071386;28;20032;-43
2023/02/21 16:10:43;;;;;;;20.48;4.85;;;;;;;;;;5071086;28;20051;-43
2023/02/21 16:13:10;;;;;;;23.13;4.90;;;;;;;;;;5071213;28;20439;-43
2023/02/21 16:15:39;;;;;;;16.58;4.40;;;;;;;;;;5071230;28;20036;-44
2023/02/21 16:18:10;;;;;;;18.25;4.68;;;;;;;;;;5071188;28;20501;-43
2023/02/21 16:20:41;;;;;;;22.20;4.75;;;;;;;;;;5071277;28;20206;-43
2023/02/21 16:23:20;;;;;;;17.35;4.55;;;;;;;;;;5071026;28;20560;-42
2023/02/21 16:26:15;;;;;;;20.80;5.15;;;;;;;;;;5071227;28;20032;-43
2023/02/21 16:28:43;;;;;;;19.67;4.90;;;;;;;;;;5068234;28;20105;-43
2023/02/21 16:31:15;;;;;;;22.10;5.10;;;;;;;;;;5070309;28;20500;-43
2023/02/21 16:33:42;;;;;;;17.60;4.70;;;;;;;;;;5070945;28;20036;-43
2023/02/21 16:36:19;;;;;;;22.08;4.28;;;;;;;;;;5071067;28;20036;-43
2023/02/21 16:38:45;;;;;;;19.77;4.78;;;;;;;;;;5070363;28;20100;-43
2023/02/21 16:41:13;;;;;;;22.38;4.68;;;;;;;;;;5052760;28;20032;-43
2023/02/21 16:43:40;;;;;;;20.45;4.50;;;;;;;;;;5071017;28;20485;-43
2023/02/21 16:46:07;;;;;;;19.58;5.10;;;;;;;;;;5071068;28;20066;-43
2023/02/21 16:48:34;;;;;;;23.55;4.82;;;;;;;;;;5071006;28;20447;-43
2023/02/21 16:51:03;;;;;;;19.13;4.93;;;;;;;;;;5070789;28;20044;-43
2023/02/21 16:53:30;;;;;;;23.17;4.57;;;;;;;;;;5070772;28;20405;-43
2023/02/21 16:55:59;;;;;;;21.35;5.15;;;;;;;;;;5070951;28;20064;-43
2023/02/21 16:58:26;;;;;;;19.10;5.05;;;;;;;;;;5070910;28;20017;-43
2023/02/21 17:00:53;;;;;;;28.42;6.05;;;;;;;;;;5070823;28;20043;-43
2023/02/21 17:03:21;;;;;;;18.42;5.07;;;;;;;;;;5070625;28;20521;-43
2023/02/21 17:05:48;;;;;;;21.02;5.40;;;;;;;;;;5070589;28;20031;-43
2023/02/21 17:08:15;;;;;;;22.45;5.43;;;;;;;;;;5070795;28;20037;-43
2023/02/21 17:10:42;;;;;;;21.77;5.10;;;;;;;;;;5070673;28;20108;-43
2023/02/21 17:13:09;;;;;;;16.05;5.05;;;;;;;;;;5070558;28;20083;-43